SCCY/GXQ METAR and TAF weather

Enter ICAO airport designator
Station Type Date Time Source
SCCY METAR 2020/04/02 00:00 UTC NOAA

SCCY 020000Z 03003KT 290V090 9999 SCT040 10/08 Q1027


Station Type Date Time Source
SCCY Decoded METAR 2020/04/02 00:00 UTC NOAA

Coyhaique, Chile (SCCY) 45-35S 072-07W
Apr 01, 2020 - 08:00 PM EDT / 2020.04.02 0000 UTC
Wind: from the NNE (030 degrees) at 3 MPH (3 KT) (direction variable):0
Visibility: greater than 7 mile(s):0
Sky conditions: partly cloudy
Temperature: 50 F (10 C)
Dew Point: 46 F (8 C)
Relative Humidity: 87%
Pressure (altimeter): 30.33 in. Hg (1027 hPa)
ob: SCCY 020000Z 03003KT 290V090 9999 SCT040 10/08 Q1027
cycle: 0

Station Type Date Time Source
SCCY TAF 2020/04/01 12:33 UTC NOAA

TAF SCCY 011034Z 0112/0124 02005KT CAVOK TN05/0112Z TX14/0119Z
BECMG 0115/0117 23005KT
TEMPO 0120/0122 8000 SHRA BKN040
BECMG 0122/0124 VRB02KT BKN030

Example: see airport list